sensor_id;sensor_type;location;lat;lon;timestamp;P1;durP1;ratioP1;P2;durP2;ratioP2
16512;SDS011;8369;48.030;11.598;2023-05-16T00:02:10;3.20;;;2.80;;
16512;SDS011;8369;48.030;11.598;2023-05-16T00:04:36;3.90;;;3.10;;
16512;SDS011;8369;48.030;11.598;2023-05-16T00:07:03;3.00;;;2.67;;
16512;SDS011;8369;48.030;11.598;2023-05-16T00:09:30;2.97;;;2.67;;
16512;SDS011;8369;48.030;11.598;2023-05-16T00:11:56;3.20;;;2.90;;
16512;SDS011;8369;48.030;11.598;2023-05-16T00:14:23;3.03;;;2.73;;
16512;SDS011;8369;48.030;11.598;2023-05-16T00:16:51;4.43;;;2.90;;
16512;SDS011;8369;48.030;11.598;2023-05-16T00:19:17;4.33;;;3.37;;
16512;SDS011;8369;48.030;11.598;2023-05-16T00:21:45;4.17;;;3.27;;
16512;SDS011;8369;48.030;11.598;2023-05-16T00:24:11;3.47;;;2.80;;
16512;SDS011;8369;48.030;11.598;2023-05-16T00:26:37;4.30;;;3.50;;
16512;SDS011;8369;48.030;11.598;2023-05-16T00:29:21;3.27;;;2.93;;
16512;SDS011;8369;48.030;11.598;2023-05-16T00:31:49;3.63;;;2.93;;
16512;SDS011;8369;48.030;11.598;2023-05-16T00:34:14;3.10;;;2.80;;
16512;SDS011;8369;48.030;11.598;2023-05-16T00:36:41;3.53;;;3.13;;
16512;SDS011;8369;48.030;11.598;2023-05-16T00:39:06;3.10;;;2.80;;
16512;SDS011;8369;48.030;11.598;2023-05-16T00:41:33;4.07;;;3.00;;
16512;SDS011;8369;48.030;11.598;2023-05-16T00:43:59;3.07;;;2.73;;
16512;SDS011;8369;48.030;11.598;2023-05-16T00:46:25;3.57;;;3.20;;
16512;SDS011;8369;48.030;11.598;2023-05-16T00:48:51;3.10;;;2.80;;
16512;SDS011;8369;48.030;11.598;2023-05-16T00:51:18;3.17;;;2.87;;
16512;SDS011;8369;48.030;11.598;2023-05-16T00:53:44;3.80;;;3.13;;
16512;SDS011;8369;48.030;11.598;2023-05-16T00:56:10;3.77;;;3.30;;
16512;SDS011;8369;48.030;11.598;2023-05-16T00:58:37;3.53;;;3.23;;
16512;SDS011;8369;48.030;11.598;2023-05-16T01:01:04;3.30;;;3.00;;
16512;SDS011;8369;48.030;11.598;2023-05-16T01:03:30;4.47;;;3.20;;
16512;SDS011;8369;48.030;11.598;2023-05-16T01:05:57;4.10;;;3.40;;
16512;SDS011;8369;48.030;11.598;2023-05-16T01:08:23;3.97;;;3.17;;
16512;SDS011;8369;48.030;11.598;2023-05-16T01:13:23;4.20;;;3.23;;
16512;SDS011;8369;48.030;11.598;2023-05-16T01:16:19;3.40;;;3.00;;
16512;SDS011;8369;48.030;11.598;2023-05-16T01:19:05;3.53;;;3.20;;
16512;SDS011;8369;48.030;11.598;2023-05-16T01:24:08;4.60;;;3.50;;
16512;SDS011;8369;48.030;11.598;2023-05-16T01:26:51;3.80;;;3.40;;
16512;SDS011;8369;48.030;11.598;2023-05-16T01:29:18;4.13;;;3.13;;
16512;SDS011;8369;48.030;11.598;2023-05-16T01:31:45;5.90;;;4.70;;
16512;SDS011;8369;48.030;11.598;2023-05-16T01:34:11;10.80;;;7.03;;
16512;SDS011;8369;48.030;11.598;2023-05-16T01:36:52;6.33;;;5.17;;
16512;SDS011;8369;48.030;11.598;2023-05-16T01:42:44;11.43;;;7.80;;
16512;SDS011;8369;48.030;11.598;2023-05-16T01:45:12;13.00;;;8.63;;
16512;SDS011;8369;48.030;11.598;2023-05-16T01:48:08;7.43;;;5.57;;
16512;SDS011;8369;48.030;11.598;2023-05-16T01:50:40;5.00;;;4.20;;
16512;SDS011;8369;48.030;11.598;2023-05-16T01:53:11;4.53;;;4.03;;
16512;SDS011;8369;48.030;11.598;2023-05-16T01:55:42;5.60;;;4.20;;
16512;SDS011;8369;48.030;11.598;2023-05-16T01:58:20;5.90;;;5.00;;
16512;SDS011;8369;48.030;11.598;2023-05-16T02:00:48;6.73;;;4.93;;
16512;SDS011;8369;48.030;11.598;2023-05-16T02:03:14;7.00;;;4.70;;
16512;SDS011;8369;48.030;11.598;2023-05-16T02:05:40;6.07;;;5.10;;
16512;SDS011;8369;48.030;11.598;2023-05-16T02:08:06;4.87;;;4.27;;
16512;SDS011;8369;48.030;11.598;2023-05-16T02:10:33;8.70;;;6.03;;
16512;SDS011;8369;48.030;11.598;2023-05-16T02:12:59;9.87;;;7.33;;
16512;SDS011;8369;48.030;11.598;2023-05-16T02:15:25;10.83;;;7.83;;
16512;SDS011;8369;48.030;11.598;2023-05-16T02:17:51;8.53;;;7.10;;
16512;SDS011;8369;48.030;11.598;2023-05-16T02:20:19;5.87;;;5.33;;
16512;SDS011;8369;48.030;11.598;2023-05-16T02:22:45;5.30;;;4.50;;
16512;SDS011;8369;48.030;11.598;2023-05-16T02:25:12;4.23;;;3.60;;
16512;SDS011;8369;48.030;11.598;2023-05-16T02:27:39;4.07;;;3.67;;
16512;SDS011;8369;48.030;11.598;2023-05-16T02:30:05;6.13;;;3.30;;
16512;SDS011;8369;48.030;11.598;2023-05-16T02:32:32;4.40;;;3.60;;
16512;SDS011;8369;48.030;11.598;2023-05-16T02:34:58;4.83;;;3.43;;
16512;SDS011;8369;48.030;11.598;2023-05-16T02:37:24;3.83;;;3.43;;
16512;SDS011;8369;48.030;11.598;2023-05-16T02:39:50;4.53;;;3.00;;
16512;SDS011;8369;48.030;11.598;2023-05-16T02:42:17;6.40;;;4.00;;
16512;SDS011;8369;48.030;11.598;2023-05-16T02:44:42;4.47;;;3.50;;
16512;SDS011;8369;48.030;11.598;2023-05-16T02:47:10;4.83;;;3.80;;
16512;SDS011;8369;48.030;11.598;2023-05-16T02:49:37;6.37;;;4.03;;
16512;SDS011;8369;48.030;11.598;2023-05-16T02:52:04;6.97;;;3.70;;
16512;SDS011;8369;48.030;11.598;2023-05-16T02:54:30;3.93;;;3.53;;
16512;SDS011;8369;48.030;11.598;2023-05-16T02:56:56;4.27;;;3.50;;
16512;SDS011;8369;48.030;11.598;2023-05-16T02:59:23;4.70;;;3.73;;
16512;SDS011;8369;48.030;11.598;2023-05-16T03:01:50;4.50;;;3.73;;
16512;SDS011;8369;48.030;11.598;2023-05-16T03:04:16;5.23;;;4.17;;
16512;SDS011;8369;48.030;11.598;2023-05-16T03:06:46;5.80;;;4.30;;
16512;SDS011;8369;48.030;11.598;2023-05-16T03:09:12;4.50;;;3.80;;
16512;SDS011;8369;48.030;11.598;2023-05-16T03:11:38;4.50;;;3.73;;
16512;SDS011;8369;48.030;11.598;2023-05-16T03:14:04;4.30;;;3.90;;
16512;SDS011;8369;48.030;11.598;2023-05-16T03:16:30;5.17;;;4.00;;
16512;SDS011;8369;48.030;11.598;2023-05-16T03:18:57;3.97;;;3.57;;
16512;SDS011;8369;48.030;11.598;2023-05-16T03:21:23;4.47;;;3.87;;
16512;SDS011;8369;48.030;11.598;2023-05-16T03:23:49;4.23;;;3.80;;
16512;SDS011;8369;48.030;11.598;2023-05-16T03:26:16;3.77;;;3.30;;
16512;SDS011;8369;48.030;11.598;2023-05-16T03:28:42;4.40;;;3.60;;
16512;SDS011;8369;48.030;11.598;2023-05-16T03:31:08;5.90;;;3.53;;
16512;SDS011;8369;48.030;11.598;2023-05-16T03:33:34;4.37;;;3.90;;
16512;SDS011;8369;48.030;11.598;2023-05-16T03:36:00;4.63;;;3.70;;
16512;SDS011;8369;48.030;11.598;2023-05-16T03:38:26;5.20;;;4.37;;
16512;SDS011;8369;48.030;11.598;2023-05-16T03:40:53;6.23;;;3.67;;
16512;SDS011;8369;48.030;11.598;2023-05-16T03:43:19;5.07;;;4.10;;
16512;SDS011;8369;48.030;11.598;2023-05-16T03:45:45;4.73;;;4.13;;
16512;SDS011;8369;48.030;11.598;2023-05-16T03:48:11;5.53;;;4.07;;
16512;SDS011;8369;48.030;11.598;2023-05-16T03:50:37;5.40;;;4.13;;
16512;SDS011;8369;48.030;11.598;2023-05-16T03:53:03;5.53;;;4.33;;
16512;SDS011;8369;48.030;11.598;2023-05-16T03:55:30;4.97;;;4.47;;
16512;SDS011;8369;48.030;11.598;2023-05-16T03:57:57;5.73;;;3.80;;
16512;SDS011;8369;48.030;11.598;2023-05-16T04:00:23;9.73;;;4.10;;
16512;SDS011;8369;48.030;11.598;2023-05-16T04:02:50;5.77;;;4.37;;
16512;SDS011;8369;48.030;11.598;2023-05-16T04:05:16;4.60;;;3.87;;
16512;SDS011;8369;48.030;11.598;2023-05-16T04:07:42;5.60;;;4.23;;
16512;SDS011;8369;48.030;11.598;2023-05-16T04:10:09;4.43;;;3.83;;
16512;SDS011;8369;48.030;11.598;2023-05-16T04:12:35;4.43;;;3.60;;
16512;SDS011;8369;48.030;11.598;2023-05-16T04:15:02;6.23;;;4.37;;
16512;SDS011;8369;48.030;11.598;2023-05-16T04:17:29;4.70;;;4.20;;
16512;SDS011;8369;48.030;11.598;2023-05-16T04:19:56;5.33;;;4.03;;
16512;SDS011;8369;48.030;11.598;2023-05-16T04:22:22;5.33;;;4.63;;
16512;SDS011;8369;48.030;11.598;2023-05-16T04:24:48;5.17;;;4.67;;
16512;SDS011;8369;48.030;11.598;2023-05-16T04:27:15;5.70;;;4.67;;
16512;SDS011;8369;48.030;11.598;2023-05-16T04:29:41;5.87;;;4.83;;
16512;SDS011;8369;48.030;11.598;2023-05-16T04:32:08;5.77;;;4.90;;
16512;SDS011;8369;48.030;11.598;2023-05-16T04:34:35;6.17;;;5.13;;
16512;SDS011;8369;48.030;11.598;2023-05-16T04:37:03;6.03;;;5.00;;
16512;SDS011;8369;48.030;11.598;2023-05-16T04:39:30;6.07;;;5.43;;
16512;SDS011;8369;48.030;11.598;2023-05-16T04:41:56;5.70;;;4.70;;
16512;SDS011;8369;48.030;11.598;2023-05-16T04:44:24;6.73;;;5.10;;
16512;SDS011;8369;48.030;11.598;2023-05-16T04:46:51;7.40;;;5.27;;
16512;SDS011;8369;48.030;11.598;2023-05-16T04:49:17;5.77;;;5.10;;
16512;SDS011;8369;48.030;11.598;2023-05-16T04:51:45;8.03;;;5.50;;
16512;SDS011;8369;48.030;11.598;2023-05-16T04:54:12;8.20;;;5.17;;
16512;SDS011;8369;48.030;11.598;2023-05-16T04:56:38;8.00;;;5.20;;
16512;SDS011;8369;48.030;11.598;2023-05-16T04:59:04;6.93;;;5.17;;
16512;SDS011;8369;48.030;11.598;2023-05-16T05:01:30;6.70;;;5.43;;
16512;SDS011;8369;48.030;11.598;2023-05-16T05:03:56;7.43;;;5.43;;
16512;SDS011;8369;48.030;11.598;2023-05-16T05:06:23;5.90;;;4.87;;
16512;SDS011;8369;48.030;11.598;2023-05-16T05:08:49;6.63;;;5.50;;
16512;SDS011;8369;48.030;11.598;2023-05-16T05:11:15;6.43;;;5.47;;
16512;SDS011;8369;48.030;11.598;2023-05-16T05:13:41;6.53;;;5.33;;
16512;SDS011;8369;48.030;11.598;2023-05-16T05:16:07;7.80;;;5.40;;
16512;SDS011;8369;48.030;11.598;2023-05-16T05:18:34;7.93;;;5.50;;
16512;SDS011;8369;48.030;11.598;2023-05-16T05:21:00;8.27;;;5.20;;
16512;SDS011;8369;48.030;11.598;2023-05-16T05:23:26;10.50;;;5.20;;
16512;SDS011;8369;48.030;11.598;2023-05-16T05:25:52;6.60;;;5.60;;
16512;SDS011;8369;48.030;11.598;2023-05-16T05:28:18;7.57;;;5.60;;
16512;SDS011;8369;48.030;11.598;2023-05-16T05:30:45;7.63;;;5.80;;
16512;SDS011;8369;48.030;11.598;2023-05-16T05:33:13;5.93;;;4.73;;
16512;SDS011;8369;48.030;11.598;2023-05-16T05:35:43;7.53;;;5.53;;
16512;SDS011;8369;48.030;11.598;2023-05-16T05:38:08;9.40;;;5.50;;
16512;SDS011;8369;48.030;11.598;2023-05-16T05:40:35;6.00;;;5.40;;
16512;SDS011;8369;48.030;11.598;2023-05-16T05:43:01;6.17;;;4.90;;
16512;SDS011;8369;48.030;11.598;2023-05-16T05:45:27;10.67;;;6.03;;
16512;SDS011;8369;48.030;11.598;2023-05-16T05:47:53;7.47;;;6.13;;
16512;SDS011;8369;48.030;11.598;2023-05-16T05:50:19;8.77;;;6.50;;
16512;SDS011;8369;48.030;11.598;2023-05-16T05:52:45;9.23;;;6.03;;
16512;SDS011;8369;48.030;11.598;2023-05-16T05:55:11;8.47;;;5.97;;
16512;SDS011;8369;48.030;11.598;2023-05-16T05:57:37;8.03;;;6.23;;
16512;SDS011;8369;48.030;11.598;2023-05-16T06:00:04;7.27;;;6.07;;
16512;SDS011;8369;48.030;11.598;2023-05-16T06:02:31;10.57;;;6.40;;
16512;SDS011;8369;48.030;11.598;2023-05-16T06:04:57;8.07;;;6.47;;
16512;SDS011;8369;48.030;11.598;2023-05-16T06:07:23;8.63;;;6.60;;
16512;SDS011;8369;48.030;11.598;2023-05-16T06:09:49;9.77;;;6.50;;
16512;SDS011;8369;48.030;11.598;2023-05-16T06:12:15;8.53;;;6.40;;
16512;SDS011;8369;48.030;11.598;2023-05-16T06:14:41;7.53;;;6.23;;
16512;SDS011;8369;48.030;11.598;2023-05-16T06:17:07;10.57;;;6.40;;
16512;SDS011;8369;48.030;11.598;2023-05-16T06:19:33;8.67;;;6.67;;
16512;SDS011;8369;48.030;11.598;2023-05-16T06:21:59;7.80;;;6.57;;
16512;SDS011;8369;48.030;11.598;2023-05-16T06:24:25;11.47;;;6.97;;
16512;SDS011;8369;48.030;11.598;2023-05-16T06:26:54;7.63;;;6.07;;
16512;SDS011;8369;48.030;11.598;2023-05-16T06:29:20;9.87;;;6.60;;
16512;SDS011;8369;48.030;11.598;2023-05-16T06:31:47;10.30;;;6.90;;
16512;SDS011;8369;48.030;11.598;2023-05-16T06:34:13;10.27;;;7.30;;
16512;SDS011;8369;48.030;11.598;2023-05-16T06:36:39;9.40;;;6.63;;
16512;SDS011;8369;48.030;11.598;2023-05-16T06:39:05;12.43;;;7.17;;
16512;SDS011;8369;48.030;11.598;2023-05-16T06:41:32;9.93;;;7.60;;
16512;SDS011;8369;48.030;11.598;2023-05-16T06:43:57;9.23;;;6.93;;
16512;SDS011;8369;48.030;11.598;2023-05-16T06:46:23;16.03;;;8.60;;
16512;SDS011;8369;48.030;11.598;2023-05-16T06:48:50;13.13;;;7.37;;
16512;SDS011;8369;48.030;11.598;2023-05-16T06:51:17;10.80;;;7.73;;
16512;SDS011;8369;48.030;11.598;2023-05-16T06:53:43;10.80;;;7.93;;
16512;SDS011;8369;48.030;11.598;2023-05-16T06:56:09;10.53;;;7.27;;
16512;SDS011;8369;48.030;11.598;2023-05-16T06:58:35;12.77;;;8.10;;
16512;SDS011;8369;48.030;11.598;2023-05-16T07:01:01;10.60;;;8.00;;
16512;SDS011;8369;48.030;11.598;2023-05-16T07:03:27;10.47;;;7.10;;
16512;SDS011;8369;48.030;11.598;2023-05-16T07:05:53;10.93;;;7.97;;
16512;SDS011;8369;48.030;11.598;2023-05-16T07:08:20;12.47;;;8.13;;
16512;SDS011;8369;48.030;11.598;2023-05-16T07:10:46;14.63;;;8.00;;
16512;SDS011;8369;48.030;11.598;2023-05-16T07:13:12;11.33;;;8.53;;
16512;SDS011;8369;48.030;11.598;2023-05-16T07:15:38;10.77;;;8.37;;
16512;SDS011;8369;48.030;11.598;2023-05-16T07:18:05;11.30;;;8.03;;
16512;SDS011;8369;48.030;11.598;2023-05-16T07:20:31;10.20;;;7.87;;
16512;SDS011;8369;48.030;11.598;2023-05-16T07:22:57;11.80;;;8.00;;
16512;SDS011;8369;48.030;11.598;2023-05-16T07:25:24;10.67;;;8.40;;
16512;SDS011;8369;48.030;11.598;2023-05-16T07:27:50;12.63;;;8.97;;
16512;SDS011;8369;48.030;11.598;2023-05-16T07:30:16;12.60;;;8.77;;
16512;SDS011;8369;48.030;11.598;2023-05-16T07:32:42;12.90;;;8.37;;
16512;SDS011;8369;48.030;11.598;2023-05-16T07:35:09;12.30;;;9.10;;
16512;SDS011;8369;48.030;11.598;2023-05-16T07:37:35;12.37;;;8.70;;
16512;SDS011;8369;48.030;11.598;2023-05-16T07:40:01;12.60;;;9.17;;
16512;SDS011;8369;48.030;11.598;2023-05-16T07:42:28;12.87;;;9.17;;
16512;SDS011;8369;48.030;11.598;2023-05-16T07:44:55;13.60;;;9.07;;
16512;SDS011;8369;48.030;11.598;2023-05-16T07:47:21;14.87;;;9.67;;
16512;SDS011;8369;48.030;11.598;2023-05-16T07:49:47;13.27;;;9.17;;
16512;SDS011;8369;48.030;11.598;2023-05-16T07:52:13;12.33;;;9.17;;
16512;SDS011;8369;48.030;11.598;2023-05-16T07:54:39;11.97;;;8.63;;
16512;SDS011;8369;48.030;11.598;2023-05-16T07:57:05;11.87;;;9.33;;
16512;SDS011;8369;48.030;11.598;2023-05-16T07:59:31;11.53;;;8.83;;
16512;SDS011;8369;48.030;11.598;2023-05-16T08:01:57;12.43;;;9.03;;
16512;SDS011;8369;48.030;11.598;2023-05-16T08:04:23;12.67;;;9.40;;
16512;SDS011;8369;48.030;11.598;2023-05-16T08:06:50;11.87;;;9.40;;
16512;SDS011;8369;48.030;11.598;2023-05-16T08:09:15;15.20;;;10.07;;
16512;SDS011;8369;48.030;11.598;2023-05-16T08:11:42;13.50;;;10.10;;
16512;SDS011;8369;48.030;11.598;2023-05-16T08:14:09;14.93;;;9.53;;
16512;SDS011;8369;48.030;11.598;2023-05-16T08:16:39;12.70;;;9.80;;
16512;SDS011;8369;48.030;11.598;2023-05-16T08:19:05;11.63;;;9.20;;
16512;SDS011;8369;48.030;11.598;2023-05-16T08:21:31;11.80;;;8.57;;
16512;SDS011;8369;48.030;11.598;2023-05-16T08:23:57;10.50;;;9.03;;
16512;SDS011;8369;48.030;11.598;2023-05-16T08:26:24;12.37;;;9.40;;
16512;SDS011;8369;48.030;11.598;2023-05-16T08:28:50;14.20;;;9.70;;
16512;SDS011;8369;48.030;11.598;2023-05-16T08:31:16;13.43;;;9.50;;
16512;SDS011;8369;48.030;11.598;2023-05-16T08:33:43;12.87;;;9.70;;
16512;SDS011;8369;48.030;11.598;2023-05-16T08:36:09;11.10;;;9.23;;
16512;SDS011;8369;48.030;11.598;2023-05-16T08:38:35;12.47;;;10.37;;
16512;SDS011;8369;48.030;11.598;2023-05-16T08:41:01;14.73;;;10.67;;
16512;SDS011;8369;48.030;11.598;2023-05-16T08:43:28;14.40;;;10.57;;
16512;SDS011;8369;48.030;11.598;2023-05-16T08:45:54;20.73;;;11.23;;
16512;SDS011;8369;48.030;11.598;2023-05-16T08:48:21;14.80;;;11.23;;
16512;SDS011;8369;48.030;11.598;2023-05-16T08:50:48;17.13;;;11.87;;
16512;SDS011;8369;48.030;11.598;2023-05-16T08:53:16;16.80;;;11.60;;
16512;SDS011;8369;48.030;11.598;2023-05-16T08:55:48;16.67;;;11.13;;
16512;SDS011;8369;48.030;11.598;2023-05-16T08:58:17;14.00;;;10.20;;
16512;SDS011;8369;48.030;11.598;2023-05-16T09:00:44;11.80;;;10.23;;
16512;SDS011;8369;48.030;11.598;2023-05-16T09:03:11;14.77;;;10.07;;
16512;SDS011;8369;48.030;11.598;2023-05-16T09:05:38;13.63;;;9.90;;
16512;SDS011;8369;48.030;11.598;2023-05-16T09:08:05;15.30;;;9.90;;
16512;SDS011;8369;48.030;11.598;2023-05-16T09:10:31;15.67;;;10.73;;
16512;SDS011;8369;48.030;11.598;2023-05-16T09:12:58;17.17;;;11.17;;
16512;SDS011;8369;48.030;11.598;2023-05-16T09:15:25;13.50;;;10.40;;
16512;SDS011;8369;48.030;11.598;2023-05-16T09:17:59;13.77;;;11.23;;
16512;SDS011;8369;48.030;11.598;2023-05-16T09:20:26;16.57;;;11.27;;
16512;SDS011;8369;48.030;11.598;2023-05-16T09:22:56;16.77;;;11.60;;
16512;SDS011;8369;48.030;11.598;2023-05-16T09:25:24;14.50;;;11.57;;
16512;SDS011;8369;48.030;11.598;2023-05-16T09:27:52;16.57;;;11.90;;
16512;SDS011;8369;48.030;11.598;2023-05-16T09:30:22;16.37;;;11.80;;
16512;SDS011;8369;48.030;11.598;2023-05-16T09:32:59;16.90;;;11.73;;
16512;SDS011;8369;48.030;11.598;2023-05-16T09:35:25;15.27;;;11.57;;
16512;SDS011;8369;48.030;11.598;2023-05-16T09:37:51;16.63;;;11.83;;
16512;SDS011;8369;48.030;11.598;2023-05-16T09:40:21;15.30;;;11.63;;
16512;SDS011;8369;48.030;11.598;2023-05-16T09:43:00;13.37;;;10.90;;
16512;SDS011;8369;48.030;11.598;2023-05-16T09:45:31;16.83;;;11.37;;
16512;SDS011;8369;48.030;11.598;2023-05-16T09:48:05;13.53;;;11.17;;
16512;SDS011;8369;48.030;11.598;2023-05-16T09:50:32;12.90;;;10.57;;
16512;SDS011;8369;48.030;11.598;2023-05-16T09:53:00;14.90;;;11.57;;
16512;SDS011;8369;48.030;11.598;2023-05-16T09:55:26;14.90;;;11.80;;
16512;SDS011;8369;48.030;11.598;2023-05-16T09:57:54;15.70;;;11.17;;
16512;SDS011;8369;48.030;11.598;2023-05-16T10:00:21;15.17;;;10.80;;
16512;SDS011;8369;48.030;11.598;2023-05-16T10:02:58;14.37;;;11.87;;
16512;SDS011;8369;48.030;11.598;2023-05-16T10:05:26;15.83;;;11.23;;
16512;SDS011;8369;48.030;11.598;2023-05-16T10:07:56;12.93;;;10.23;;
16512;SDS011;8369;48.030;11.598;2023-05-16T10:10:23;13.67;;;11.53;;
16512;SDS011;8369;48.030;11.598;2023-05-16T10:12:50;12.90;;;11.10;;
16512;SDS011;8369;48.030;11.598;2023-05-16T10:15:18;14.40;;;11.20;;
16512;SDS011;8369;48.030;11.598;2023-05-16T10:17:45;15.57;;;11.30;;
16512;SDS011;8369;48.030;11.598;2023-05-16T10:20:18;13.87;;;11.60;;
16512;SDS011;8369;48.030;11.598;2023-05-16T10:22:46;14.43;;;11.10;;
16512;SDS011;8369;48.030;11.598;2023-05-16T10:25:16;14.77;;;11.00;;
16512;SDS011;8369;48.030;11.598;2023-05-16T10:27:50;14.33;;;11.43;;
16512;SDS011;8369;48.030;11.598;2023-05-16T10:30:17;14.13;;;12.13;;
16512;SDS011;8369;48.030;11.598;2023-05-16T10:32:44;14.80;;;11.50;;
16512;SDS011;8369;48.030;11.598;2023-05-16T10:35:11;14.57;;;11.13;;
16512;SDS011;8369;48.030;11.598;2023-05-16T10:37:38;13.17;;;11.47;;
16512;SDS011;8369;48.030;11.598;2023-05-16T10:40:04;15.37;;;12.17;;
16512;SDS011;8369;48.030;11.598;2023-05-16T10:42:32;14.97;;;12.10;;
16512;SDS011;8369;48.030;11.598;2023-05-16T10:45:17;16.23;;;12.93;;
16512;SDS011;8369;48.030;11.598;2023-05-16T10:47:53;17.03;;;10.70;;
16512;SDS011;8369;48.030;11.598;2023-05-16T10:50:30;15.03;;;11.90;;
16512;SDS011;8369;48.030;11.598;2023-05-16T10:55:48;14.80;;;12.27;;
16512;SDS011;8369;48.030;11.598;2023-05-16T11:01:20;18.50;;;11.60;;
16512;SDS011;8369;48.030;11.598;2023-05-16T11:06:25;14.63;;;12.23;;
16512;SDS011;8369;48.030;11.598;2023-05-16T11:14:40;16.63;;;12.27;;
16512;SDS011;8369;48.030;11.598;2023-05-16T11:17:12;17.37;;;12.50;;
16512;SDS011;8369;48.030;11.598;2023-05-16T11:25:02;16.57;;;12.27;;
16512;SDS011;8369;48.030;11.598;2023-05-16T11:27:34;15.73;;;12.17;;
16512;SDS011;8369;48.030;11.598;2023-05-16T11:30:15;16.30;;;12.87;;
16512;SDS011;8369;48.030;11.598;2023-05-16T11:32:45;14.80;;;12.17;;
16512;SDS011;8369;48.030;11.598;2023-05-16T11:35:13;17.20;;;12.30;;
16512;SDS011;8369;48.030;11.598;2023-05-16T11:37:41;15.83;;;12.20;;
16512;SDS011;8369;48.030;11.598;2023-05-16T11:40:09;14.70;;;12.33;;
16512;SDS011;8369;48.030;11.598;2023-05-16T11:42:37;19.53;;;12.80;;
16512;SDS011;8369;48.030;11.598;2023-05-16T11:45:09;16.03;;;13.30;;
16512;SDS011;8369;48.030;11.598;2023-05-16T11:47:39;16.17;;;12.97;;
16512;SDS011;8369;48.030;11.598;2023-05-16T11:50:10;15.60;;;12.90;;
16512;SDS011;8369;48.030;11.598;2023-05-16T11:52:45;15.20;;;12.23;;
16512;SDS011;8369;48.030;11.598;2023-05-16T11:55:13;14.37;;;11.30;;
16512;SDS011;8369;48.030;11.598;2023-05-16T11:57:42;14.80;;;12.10;;
16512;SDS011;8369;48.030;11.598;2023-05-16T12:00:15;15.97;;;12.73;;
16512;SDS011;8369;48.030;11.598;2023-05-16T12:02:46;13.53;;;11.50;;
16512;SDS011;8369;48.030;11.598;2023-05-16T12:05:17;14.03;;;11.53;;
16512;SDS011;8369;48.030;11.598;2023-05-16T12:07:46;13.37;;;10.93;;
16512;SDS011;8369;48.030;11.598;2023-05-16T12:10:14;14.33;;;11.07;;
16512;SDS011;8369;48.030;11.598;2023-05-16T12:12:41;14.03;;;11.70;;
16512;SDS011;8369;48.030;11.598;2023-05-16T12:15:09;15.27;;;11.37;;
16512;SDS011;8369;48.030;11.598;2023-05-16T12:17:35;12.80;;;10.77;;
16512;SDS011;8369;48.030;11.598;2023-05-16T12:20:04;15.77;;;10.73;;
16512;SDS011;8369;48.030;11.598;2023-05-16T12:22:41;13.03;;;11.03;;
16512;SDS011;8369;48.030;11.598;2023-05-16T12:27:57;13.33;;;11.17;;
16512;SDS011;8369;48.030;11.598;2023-05-16T12:30:25;12.63;;;10.80;;
16512;SDS011;8369;48.030;11.598;2023-05-16T12:33:02;14.43;;;11.37;;
16512;SDS011;8369;48.030;11.598;2023-05-16T12:35:40;14.87;;;10.87;;
16512;SDS011;8369;48.030;11.598;2023-05-16T12:38:08;12.60;;;10.60;;
16512;SDS011;8369;48.030;11.598;2023-05-16T12:40:36;11.37;;;9.23;;
16512;SDS011;8369;48.030;11.598;2023-05-16T12:45:53;12.40;;;9.60;;
16512;SDS011;8369;48.030;11.598;2023-05-16T12:48:22;11.30;;;8.87;;
16512;SDS011;8369;48.030;11.598;2023-05-16T12:50:55;11.13;;;9.07;;
16512;SDS011;8369;48.030;11.598;2023-05-16T12:53:21;10.17;;;9.10;;
16512;SDS011;8369;48.030;11.598;2023-05-16T12:55:47;10.93;;;9.30;;
16512;SDS011;8369;48.030;11.598;2023-05-16T12:58:14;12.47;;;9.77;;
16512;SDS011;8369;48.030;11.598;2023-05-16T13:00:41;12.67;;;10.27;;
16512;SDS011;8369;48.030;11.598;2023-05-16T13:03:08;13.50;;;10.07;;
16512;SDS011;8369;48.030;11.598;2023-05-16T13:05:34;10.57;;;9.47;;
16512;SDS011;8369;48.030;11.598;2023-05-16T13:08:00;12.67;;;10.37;;
16512;SDS011;8369;48.030;11.598;2023-05-16T13:10:26;12.57;;;10.93;;
16512;SDS011;8369;48.030;11.598;2023-05-16T13:12:54;13.70;;;10.50;;
16512;SDS011;8369;48.030;11.598;2023-05-16T13:15:24;12.33;;;9.60;;
16512;SDS011;8369;48.030;11.598;2023-05-16T13:17:54;14.50;;;10.13;;
16512;SDS011;8369;48.030;11.598;2023-05-16T13:20:21;11.97;;;9.70;;
16512;SDS011;8369;48.030;11.598;2023-05-16T13:22:48;11.47;;;9.70;;
16512;SDS011;8369;48.030;11.598;2023-05-16T13:25:15;12.90;;;10.20;;
16512;SDS011;8369;48.030;11.598;2023-05-16T13:27:42;11.50;;;9.73;;
16512;SDS011;8369;48.030;11.598;2023-05-16T13:30:08;11.63;;;10.23;;
16512;SDS011;8369;48.030;11.598;2023-05-16T13:32:34;12.33;;;10.40;;
16512;SDS011;8369;48.030;11.598;2023-05-16T13:35:01;14.10;;;10.50;;
16512;SDS011;8369;48.030;11.598;2023-05-16T13:37:28;13.60;;;11.37;;
16512;SDS011;8369;48.030;11.598;2023-05-16T13:39:54;13.37;;;10.20;;
16512;SDS011;8369;48.030;11.598;2023-05-16T13:42:20;13.93;;;10.87;;
16512;SDS011;8369;48.030;11.598;2023-05-16T13:44:49;15.83;;;11.30;;
16512;SDS011;8369;48.030;11.598;2023-05-16T13:47:15;12.10;;;9.83;;
16512;SDS011;8369;48.030;11.598;2023-05-16T13:49:43;13.27;;;11.07;;
16512;SDS011;8369;48.030;11.598;2023-05-16T13:52:11;14.97;;;10.77;;
16512;SDS011;8369;48.030;11.598;2023-05-16T13:54:38;14.37;;;10.73;;
16512;SDS011;8369;48.030;11.598;2023-05-16T13:57:05;15.23;;;11.73;;
16512;SDS011;8369;48.030;11.598;2023-05-16T13:59:32;16.77;;;12.13;;
16512;SDS011;8369;48.030;11.598;2023-05-16T14:01:58;13.70;;;11.27;;
16512;SDS011;8369;48.030;11.598;2023-05-16T14:04:26;10.17;;;8.10;;
16512;SDS011;8369;48.030;11.598;2023-05-16T14:06:52;8.93;;;6.50;;
16512;SDS011;8369;48.030;11.598;2023-05-16T14:09:19;6.83;;;5.77;;
16512;SDS011;8369;48.030;11.598;2023-05-16T14:15:28;7.87;;;4.47;;
16512;SDS011;8369;48.030;11.598;2023-05-16T14:17:54;5.07;;;4.57;;
16512;SDS011;8369;48.030;11.598;2023-05-16T14:20:20;5.90;;;5.10;;
16512;SDS011;8369;48.030;11.598;2023-05-16T14:22:46;6.33;;;5.20;;
16512;SDS011;8369;48.030;11.598;2023-05-16T14:25:12;5.83;;;5.23;;
16512;SDS011;8369;48.030;11.598;2023-05-16T14:27:38;7.03;;;5.87;;
16512;SDS011;8369;48.030;11.598;2023-05-16T14:30:04;15.33;;;5.47;;
16512;SDS011;8369;48.030;11.598;2023-05-16T14:32:32;6.53;;;5.63;;
16512;SDS011;8369;48.030;11.598;2023-05-16T14:34:58;6.73;;;5.90;;
16512;SDS011;8369;48.030;11.598;2023-05-16T14:37:24;6.90;;;6.20;;
16512;SDS011;8369;48.030;11.598;2023-05-16T14:39:50;8.73;;;6.07;;
16512;SDS011;8369;48.030;11.598;2023-05-16T14:42:17;11.73;;;8.47;;
16512;SDS011;8369;48.030;11.598;2023-05-16T14:44:44;10.73;;;8.13;;
16512;SDS011;8369;48.030;11.598;2023-05-16T14:47:10;13.60;;;7.13;;
16512;SDS011;8369;48.030;11.598;2023-05-16T14:49:36;8.03;;;6.67;;
16512;SDS011;8369;48.030;11.598;2023-05-16T14:52:02;10.83;;;6.87;;
16512;SDS011;8369;48.030;11.598;2023-05-16T14:54:28;10.77;;;7.70;;
16512;SDS011;8369;48.030;11.598;2023-05-16T14:56:55;8.07;;;7.27;;
16512;SDS011;8369;48.030;11.598;2023-05-16T14:59:22;9.77;;;7.23;;
16512;SDS011;8369;48.030;11.598;2023-05-16T15:01:50;9.97;;;7.73;;
16512;SDS011;8369;48.030;11.598;2023-05-16T15:04:15;8.33;;;7.00;;
16512;SDS011;8369;48.030;11.598;2023-05-16T15:06:41;9.17;;;7.90;;
16512;SDS011;8369;48.030;11.598;2023-05-16T15:09:08;9.07;;;7.60;;
16512;SDS011;8369;48.030;11.598;2023-05-16T15:11:35;10.13;;;7.30;;
16512;SDS011;8369;48.030;11.598;2023-05-16T15:14:02;9.47;;;7.67;;
16512;SDS011;8369;48.030;11.598;2023-05-16T15:16:29;10.30;;;7.77;;